createdAt,value
2022-08-08T00:01:08.358Z,100.00
2022-08-08T00:03:47.446Z,100.00
2022-08-08T00:06:28.695Z,100.00
2022-08-08T00:09:07.662Z,100.00
2022-08-08T00:11:47.167Z,100.00
2022-08-08T00:14:57.319Z,100.00
2022-08-08T00:18:01.831Z,100.00
2022-08-08T00:20:37.204Z,100.00
2022-08-08T00:23:08.305Z,100.00
2022-08-08T00:25:46.250Z,100.00
2022-08-08T00:28:34.082Z,100.00
2022-08-08T00:32:15.229Z,100.00
2022-08-08T00:34:20.576Z,100.00
2022-08-08T00:36:54.955Z,100.00
2022-08-08T00:41:12.144Z,100.00
2022-08-08T00:42:48.258Z,100.00
2022-08-08T00:45:56.049Z,100.00
2022-08-08T00:48:59.206Z,100.00
2022-08-08T00:51:58.962Z,100.00
2022-08-08T00:55:03.983Z,100.00
2022-08-08T00:58:12.668Z,100.00
2022-08-08T01:00:50.671Z,100.00
2022-08-08T01:04:07.228Z,100.00
2022-08-08T01:07:07.459Z,100.00
2022-08-08T01:10:18.055Z,100.00
2022-08-08T01:13:03.446Z,100.00
2022-08-08T01:15:53.204Z,100.00
2022-08-08T01:18:52.700Z,100.00
2022-08-08T01:22:12.360Z,100.00
2022-08-08T01:24:57.396Z,100.00
2022-08-08T01:28:07.121Z,100.00
2022-08-08T01:32:05.704Z,100.00
2022-08-08T01:34:42.921Z,100.00
2022-08-08T01:37:48.005Z,100.00
2022-08-08T01:40:28.141Z,100.00
2022-08-08T01:43:03.157Z,100.00
2022-08-08T01:45:54.283Z,100.00
2022-08-08T01:48:36.628Z,100.00
2022-08-08T01:52:02.806Z,100.00
2022-08-08T01:55:26.006Z,100.00
2022-08-08T01:57:33.754Z,100.00
2022-08-08T02:00:18.790Z,100.00
2022-08-08T02:03:02.367Z,100.00
2022-08-08T02:05:56.633Z,100.00
2022-08-08T02:08:37.895Z,100.00
2022-08-08T02:11:23.668Z,100.00
2022-08-08T02:13:57.081Z,100.00
2022-08-08T02:16:34.599Z,100.00
2022-08-08T02:19:41.829Z,100.00
2022-08-08T02:22:18.786Z,100.00
2022-08-08T02:24:53.608Z,100.00
2022-08-08T02:27:28.101Z,100.00
2022-08-08T02:30:20.697Z,100.00
2022-08-08T02:33:21.399Z,100.00
2022-08-08T02:36:03.806Z,100.00
2022-08-08T02:39:00.921Z,100.00
2022-08-08T02:42:04.236Z,100.00
2022-08-08T02:45:00.964Z,100.00
2022-08-08T02:48:25.938Z,100.00
2022-08-08T02:51:55.430Z,100.00
2022-08-08T02:54:54.814Z,100.00
2022-08-08T02:57:54.524Z,100.00
2022-08-08T03:00:32.215Z,100.00
2022-08-08T03:05:00.988Z,100.00
2022-08-08T03:06:55.275Z,100.00
2022-08-08T03:10:08.292Z,100.00
2022-08-08T03:15:53.519Z,100.00
2022-08-08T03:16:43.339Z,100.00
2022-08-08T03:19:29.776Z,100.00
2022-08-08T03:21:59.826Z,100.00
2022-08-08T03:24:29.461Z,100.00
2022-08-08T03:27:10.139Z,100.00
2022-08-08T03:29:56.200Z,100.00
2022-08-08T03:32:47.557Z,100.00
2022-08-08T03:35:22.596Z,100.00
2022-08-08T03:38:52.916Z,100.00
2022-08-08T03:40:40.443Z,100.00
2022-08-08T03:43:15.623Z,100.00
2022-08-08T03:46:06.367Z,100.00
2022-08-08T03:49:09.854Z,100.00
2022-08-08T03:51:40.412Z,100.00
2022-08-08T03:54:15.479Z,100.00
2022-08-08T03:58:30.074Z,100.00
2022-08-08T04:00:02.890Z,100.00
2022-08-08T04:02:51.845Z,100.00
2022-08-08T04:05:28.020Z,100.00
2022-08-08T04:07:57.847Z,100.00
2022-08-08T04:10:32.190Z,100.00
2022-08-08T04:13:08.216Z,100.00
2022-08-08T04:15:55.073Z,100.00
2022-08-08T04:18:32.516Z,100.00
2022-08-08T04:21:01.039Z,100.00
2022-08-08T04:24:05.781Z,100.00
2022-08-08T04:26:21.156Z,100.00
2022-08-08T04:28:55.330Z,100.00
2022-08-08T04:31:56.769Z,100.00
2022-08-08T04:34:11.575Z,100.00
2022-08-08T04:36:39.964Z,100.00
2022-08-08T04:39:48.584Z,100.00
2022-08-08T04:41:56.499Z,100.00
2022-08-08T04:44:26.832Z,100.00
2022-08-08T04:46:55.096Z,100.00
2022-08-08T04:49:28.997Z,100.00
2022-08-08T04:52:14.108Z,100.00
2022-08-08T04:54:42.738Z,100.00
2022-08-08T04:57:10.887Z,100.00
2022-08-08T04:59:42.416Z,100.00
2022-08-08T05:02:13.481Z,100.00
2022-08-08T05:04:44.631Z,100.00
2022-08-08T05:07:14.875Z,100.00
2022-08-08T05:09:43.868Z,100.00
2022-08-08T05:12:20.373Z,100.00
2022-08-08T05:14:52.308Z,100.00
2022-08-08T05:17:21.645Z,100.00
2022-08-08T05:20:10.353Z,100.00
2022-08-08T05:22:37.811Z,100.00
2022-08-08T05:25:06.841Z,100.00
2022-08-08T05:27:41.570Z,100.00
2022-08-08T05:30:14.077Z,100.00
2022-08-08T05:32:42.722Z,100.00
2022-08-08T05:35:13.686Z,100.00
2022-08-08T05:37:52.901Z,100.00
2022-08-08T05:40:28.356Z,100.00
2022-08-08T05:43:03.315Z,100.00
2022-08-08T05:45:55.300Z,100.00
2022-08-08T05:48:34.670Z,100.00
2022-08-08T05:51:15.038Z,100.00
2022-08-08T05:54:25.543Z,100.00
2022-08-08T05:56:38.625Z,100.00
2022-08-08T05:59:58.764Z,100.00
2022-08-08T06:02:32.170Z,100.00
2022-08-08T06:05:16.306Z,100.00
2022-08-08T06:07:53.263Z,100.00
2022-08-08T06:10:33.199Z,100.00
2022-08-08T06:13:02.891Z,100.00
2022-08-08T06:15:50.500Z,100.00
2022-08-08T06:18:24.028Z,100.00
2022-08-08T06:20:57.161Z,100.00
2022-08-08T06:23:52.515Z,100.00
2022-08-08T06:26:38.855Z,100.00
2022-08-08T06:29:25.967Z,100.00
2022-08-08T06:32:10.422Z,100.00
2022-08-08T06:34:56.375Z,100.00
2022-08-08T06:37:40.497Z,100.00
2022-08-08T06:40:16.308Z,100.00
2022-08-08T06:42:57.032Z,100.00
2022-08-08T06:45:26.074Z,100.00
2022-08-08T06:48:00.862Z,100.00
2022-08-08T06:50:33.860Z,100.00
2022-08-08T06:53:13.959Z,100.00
2022-08-08T06:55:47.238Z,100.00
2022-08-08T06:58:30.686Z,100.00
2022-08-08T07:01:11.649Z,100.00
2022-08-08T07:04:37.412Z,100.00
2022-08-08T07:06:50.510Z,100.00
2022-08-08T07:09:21.797Z,100.00
2022-08-08T07:11:56.551Z,100.00
2022-08-08T07:14:28.834Z,100.00
2022-08-08T07:17:09.460Z,100.00
2022-08-08T07:19:44.676Z,100.00
2022-08-08T07:22:18.734Z,100.00
2022-08-08T07:24:53.434Z,100.00
2022-08-08T07:27:35.659Z,100.00
2022-08-08T07:30:25.550Z,100.00
2022-08-08T07:32:59.414Z,100.00
2022-08-08T07:35:30.954Z,100.00
2022-08-08T07:38:09.913Z,99.11
2022-08-08T07:40:47.370Z,99.19
2022-08-08T07:43:16.947Z,99.47
2022-08-08T07:46:17.724Z,98.92
2022-08-08T07:48:48.380Z,98.61
2022-08-08T07:51:24.328Z,99.05
2022-08-08T07:54:27.342Z,99.50
2022-08-08T07:57:01.912Z,96.73
2022-08-08T07:59:37.472Z,100.00
2022-08-08T08:02:34.999Z,93.90
2022-08-08T08:04:57.827Z,92.31
2022-08-08T08:07:32.265Z,94.52
2022-08-08T08:10:12.496Z,90.16
2022-08-08T08:12:45.007Z,90.80
2022-08-08T08:15:19.108Z,84.46
2022-08-08T08:17:55.871Z,91.53
2022-08-08T08:20:30.155Z,88.29
2022-08-08T08:22:58.826Z,85.35
2022-08-08T08:25:40.754Z,84.83
2022-08-08T08:28:16.904Z,82.96
2022-08-08T08:30:50.111Z,91.35
2022-08-08T08:33:18.158Z,80.14
2022-08-08T08:36:19.240Z,89.05
2022-08-08T08:38:36.397Z,85.05
2022-08-08T08:41:13.214Z,82.30
2022-08-08T08:43:46.408Z,79.93
2022-08-08T08:46:15.209Z,80.64
2022-08-08T08:48:54.905Z,80.89
2022-08-08T08:51:27.228Z,81.56
2022-08-08T08:54:00.031Z,92.29
2022-08-08T08:56:31.036Z,82.16
2022-08-08T08:59:01.393Z,80.84
2022-08-08T09:01:32.794Z,76.98
2022-08-08T09:04:02.965Z,64.33
2022-08-08T09:06:34.663Z,61.89
2022-08-08T09:09:07.055Z,66.73
2022-08-08T09:11:47.412Z,60.12
2022-08-08T09:14:28.477Z,75.31
2022-08-08T09:16:56.750Z,72.60
2022-08-08T09:22:00.703Z,72.53
2022-08-08T09:22:26.185Z,70.57
2022-08-08T09:25:00.151Z,76.45
2022-08-08T09:27:56.082Z,78.73
2022-08-08T09:30:20.221Z,76.92
2022-08-08T09:33:12.752Z,81.02
2022-08-08T09:35:48.997Z,76.89
2022-08-08T09:38:32.723Z,72.41
2022-08-08T09:41:06.316Z,70.37
2022-08-08T09:44:06.294Z,72.63
2022-08-08T09:46:38.900Z,79.22
2022-08-08T09:49:41.650Z,76.10
2022-08-08T09:52:07.486Z,75.62
2022-08-08T09:54:43.850Z,72.32
2022-08-08T09:57:17.349Z,74.16
2022-08-08T10:00:14.828Z,75.60
2022-08-08T10:02:40.514Z,80.02
2022-08-08T10:05:15.275Z,84.21
2022-08-08T10:07:59.924Z,77.22
2022-08-08T10:10:31.914Z,75.78
2022-08-08T10:13:14.111Z,79.99
2022-08-08T10:16:01.069Z,79.35
2022-08-08T10:18:30.996Z,73.51
2022-08-08T10:21:08.148Z,77.10
2022-08-08T10:23:44.161Z,76.19
2022-08-08T10:26:30.936Z,78.17
2022-08-08T10:29:11.240Z,75.24
2022-08-08T10:31:59.787Z,75.38
2022-08-08T10:34:29.553Z,74.17
2022-08-08T10:37:00.264Z,70.07
2022-08-08T10:39:31.463Z,66.93
2022-08-08T10:42:16.442Z,71.04
2022-08-08T10:44:45.666Z,72.93
2022-08-08T10:47:20.561Z,72.30
2022-08-08T10:50:01.251Z,73.15
2022-08-08T10:52:32.301Z,69.03
2022-08-08T10:55:06.205Z,71.77
2022-08-08T10:57:45.165Z,70.31
2022-08-08T11:00:22.878Z,70.31
2022-08-08T11:02:55.271Z,63.54
2022-08-08T11:05:23.955Z,68.08
2022-08-08T11:08:37.937Z,61.26
2022-08-08T11:10:46.817Z,61.09
2022-08-08T11:13:31.721Z,64.96
2022-08-08T11:16:08.027Z,58.47
2022-08-08T11:18:41.078Z,59.83
2022-08-08T11:21:10.284Z,64.32
2022-08-08T11:24:02.330Z,56.71
2022-08-08T11:26:31.742Z,59.69
2022-08-08T11:29:03.112Z,60.99
2022-08-08T11:31:46.794Z,67.09
2022-08-08T11:34:24.301Z,58.72
2022-08-08T11:37:04.462Z,56.68
2022-08-08T11:39:57.190Z,60.42
2022-08-08T11:42:30.786Z,56.55
2022-08-08T11:45:00.186Z,57.04
2022-08-08T11:47:39.766Z,58.51
2022-08-08T11:50:12.244Z,64.66
2022-08-08T11:52:47.224Z,56.35
2022-08-08T11:55:20.294Z,60.86
2022-08-08T11:57:51.604Z,58.37
2022-08-08T12:00:20.851Z,62.74
2022-08-08T12:02:52.229Z,62.88
2022-08-08T12:05:33.790Z,60.50
2022-08-08T12:08:02.328Z,58.21
2022-08-08T12:10:33.489Z,62.19
2022-08-08T12:13:03.230Z,62.46
2022-08-08T12:15:42.551Z,53.34
2022-08-08T12:18:24.301Z,52.92
2022-08-08T12:20:56.619Z,60.81
2022-08-08T12:23:43.309Z,55.99
2022-08-08T12:26:28.473Z,53.33
2022-08-08T12:29:19.706Z,60.89
2022-08-08T12:31:53.804Z,59.87
2022-08-08T12:34:36.436Z,56.85
2022-08-08T12:37:08.308Z,54.70
2022-08-08T12:40:00.873Z,54.06
2022-08-08T12:42:27.472Z,55.06
2022-08-08T12:45:20.041Z,52.49
2022-08-08T12:48:10.307Z,58.83
2022-08-08T12:50:50.797Z,55.58
2022-08-08T12:53:30.341Z,49.97
2022-08-08T12:56:19.373Z,50.40
2022-08-08T12:58:54.386Z,48.39
2022-08-08T13:01:36.950Z,56.06
2022-08-08T13:04:18.983Z,56.16
2022-08-08T13:06:56.860Z,54.99
2022-08-08T13:10:00.492Z,52.17
2022-08-08T13:12:29.469Z,54.78
2022-08-08T13:14:59.323Z,60.62
2022-08-08T13:18:09.407Z,52.83
2022-08-08T13:20:18.305Z,60.38
2022-08-08T13:22:47.449Z,62.78
2022-08-08T13:25:17.628Z,53.88
2022-08-08T13:27:56.522Z,54.86
2022-08-08T13:30:28.680Z,57.04
2022-08-08T13:32:58.086Z,58.19
2022-08-08T13:35:29.853Z,57.21
2022-08-08T13:38:08.582Z,58.16
2022-08-08T13:40:45.172Z,59.15
2022-08-08T13:43:15.863Z,59.60
2022-08-08T13:45:47.723Z,61.54
2022-08-08T13:48:17.142Z,59.53
2022-08-08T13:50:52.502Z,61.25
2022-08-08T13:53:28.058Z,61.99
2022-08-08T13:56:05.352Z,63.68
2022-08-08T13:58:34.578Z,64.45
2022-08-08T14:01:13.763Z,60.92
2022-08-08T14:03:54.992Z,62.09
2022-08-08T14:06:34.217Z,59.23
2022-08-08T14:09:24.339Z,61.19
2022-08-08T14:11:54.420Z,58.10
2022-08-08T14:14:26.265Z,59.26
2022-08-08T14:16:55.600Z,63.19
2022-08-08T14:19:57.345Z,62.43
2022-08-08T14:22:23.293Z,62.64
2022-08-08T14:24:54.553Z,65.09
2022-08-08T14:27:29.475Z,67.63
2022-08-08T14:30:03.216Z,63.14
2022-08-08T14:32:37.083Z,68.36
2022-08-08T14:35:07.886Z,70.66
2022-08-08T14:37:43.002Z,66.68
2022-08-08T14:40:27.328Z,68.54
2022-08-08T14:43:01.516Z,65.79
2022-08-08T14:46:03.341Z,69.85
2022-08-08T14:48:41.392Z,69.32
2022-08-08T14:51:23.417Z,67.34
2022-08-08T14:53:55.165Z,71.67
2022-08-08T14:56:25.556Z,72.47
2022-08-08T14:58:55.379Z,72.71
2022-08-08T15:01:40.552Z,66.25
2022-08-08T15:04:10.357Z,64.11
2022-08-08T15:06:39.031Z,63.82
2022-08-08T15:09:10.404Z,65.45
2022-08-08T15:11:43.246Z,66.70
2022-08-08T15:14:16.086Z,65.08
2022-08-08T15:16:44.677Z,66.58
2022-08-08T15:19:15.002Z,70.88
2022-08-08T15:21:44.817Z,66.24
2022-08-08T15:24:16.111Z,66.01
2022-08-08T15:26:52.257Z,67.15
2022-08-08T15:29:24.496Z,66.61
2022-08-08T15:32:17.410Z,64.86
2022-08-08T15:34:42.028Z,65.88
2022-08-08T15:37:10.084Z,64.36
2022-08-08T15:39:41.055Z,68.31
2022-08-08T15:42:17.941Z,68.16
2022-08-08T15:44:59.757Z,67.96
2022-08-08T15:47:28.014Z,67.09
2022-08-08T15:49:59.327Z,64.67
2022-08-08T15:52:27.386Z,67.86
2022-08-08T15:54:55.440Z,64.61
2022-08-08T15:57:23.692Z,64.27
2022-08-08T16:00:25.634Z,67.00
2022-08-08T16:02:44.641Z,69.83
2022-08-08T16:05:21.309Z,69.53
2022-08-08T16:07:53.075Z,68.99
2022-08-08T16:13:03.966Z,66.12
2022-08-08T16:13:45.231Z,62.88
2022-08-08T16:16:13.173Z,63.66
2022-08-08T16:18:56.478Z,61.38
2022-08-08T16:21:29.106Z,58.50
2022-08-08T16:23:57.739Z,56.69
2022-08-08T16:26:34.391Z,57.62
2022-08-08T16:29:08.601Z,58.40
2022-08-08T16:31:41.031Z,59.83
2022-08-08T16:34:11.097Z,57.23
2022-08-08T16:36:40.832Z,56.21
2022-08-08T16:39:27.648Z,56.13
2022-08-08T16:42:01.242Z,54.20
2022-08-08T16:44:34.023Z,52.04
2022-08-08T16:47:17.422Z,50.98
2022-08-08T16:49:47.830Z,50.94
2022-08-08T16:55:03.235Z,50.60
2022-08-08T16:55:42.917Z,50.62
2022-08-08T16:58:15.359Z,50.33
2022-08-08T17:00:49.123Z,52.75
2022-08-08T17:03:24.938Z,50.41
2022-08-08T17:06:37.274Z,49.79
2022-08-08T17:08:57.685Z,49.39
2022-08-08T17:11:28.334Z,48.83
2022-08-08T17:14:18.041Z,47.95
2022-08-08T17:16:51.689Z,49.90
2022-08-08T17:19:25.216Z,47.49
2022-08-08T17:21:55.044Z,51.14
2022-08-08T17:24:28.050Z,49.54
2022-08-08T17:26:59.062Z,49.72
2022-08-08T17:29:27.541Z,49.39
2022-08-08T17:31:57.479Z,49.47
2022-08-08T17:34:48.426Z,48.14
2022-08-08T17:37:15.714Z,48.69
2022-08-08T17:40:06.075Z,51.61
2022-08-08T17:42:36.011Z,52.68
2022-08-08T17:45:04.594Z,54.09
2022-08-08T17:47:40.706Z,55.92
2022-08-08T17:50:10.609Z,57.99
2022-08-08T17:52:43.148Z,58.84
2022-08-08T17:56:05.737Z,60.20
2022-08-08T17:58:00.019Z,61.92
2022-08-08T18:00:31.410Z,62.32
2022-08-08T18:03:07.782Z,67.11
2022-08-08T18:05:48.610Z,68.54
2022-08-08T18:08:36.773Z,69.42
2022-08-08T18:11:11.755Z,66.56
2022-08-08T18:13:43.145Z,68.41
2022-08-08T18:16:12.783Z,67.96
2022-08-08T18:18:52.334Z,70.07
2022-08-08T18:21:35.466Z,73.02
2022-08-08T18:24:18.980Z,80.61
2022-08-08T18:26:54.752Z,77.10
2022-08-08T18:29:29.990Z,78.51
2022-08-08T18:32:03.437Z,80.04
2022-08-08T18:34:32.930Z,85.49
2022-08-08T18:37:04.912Z,77.78
2022-08-08T18:39:36.991Z,81.02
2022-08-08T18:42:10.246Z,81.33
2022-08-08T18:44:42.430Z,81.42
2022-08-08T18:47:24.916Z,76.44
2022-08-08T18:49:57.598Z,78.34
2022-08-08T18:52:27.125Z,79.19
2022-08-08T18:54:59.609Z,83.52
2022-08-08T18:57:41.609Z,78.15
2022-08-08T19:00:16.642Z,80.95
2022-08-08T19:02:56.110Z,82.79
2022-08-08T19:05:30.633Z,83.04
2022-08-08T19:08:02.336Z,84.89
2022-08-08T19:10:32.554Z,84.18
2022-08-08T19:13:03.241Z,83.96
2022-08-08T19:15:33.694Z,82.70
2022-08-08T19:18:30.670Z,88.53
2022-08-08T19:20:51.041Z,82.07
2022-08-08T19:23:21.671Z,80.38
2022-08-08T19:26:20.403Z,80.46
2022-08-08T19:28:41.816Z,81.46
2022-08-08T19:31:12.965Z,81.42
2022-08-08T19:34:05.148Z,83.09
2022-08-08T19:36:33.554Z,83.86
2022-08-08T19:39:01.686Z,83.39
2022-08-08T19:41:33.623Z,84.29
2022-08-08T19:44:03.324Z,84.13
2022-08-08T19:46:33.175Z,84.87
2022-08-08T19:49:03.150Z,85.31
2022-08-08T19:51:34.720Z,86.07
2022-08-08T19:54:08.509Z,86.60
2022-08-08T19:56:40.398Z,88.16
2022-08-08T19:59:09.635Z,89.37
2022-08-08T20:01:59.768Z,90.79
2022-08-08T20:04:26.636Z,91.82
2022-08-08T20:06:56.877Z,93.09
2022-08-08T20:09:30.079Z,94.71
2022-08-08T20:12:02.459Z,98.55
2022-08-08T20:14:34.318Z,97.63
2022-08-08T20:17:04.124Z,99.06
2022-08-08T20:19:34.344Z,97.75
2022-08-08T20:22:13.217Z,95.82
2022-08-08T20:24:49.289Z,95.75
2022-08-08T20:27:33.055Z,95.29
2022-08-08T20:30:12.130Z,97.70
2022-08-08T20:33:00.329Z,99.28
2022-08-08T20:35:56.635Z,98.89
2022-08-08T20:38:17.528Z,97.96
2022-08-08T20:40:50.147Z,99.13
2022-08-08T20:43:43.127Z,100.00
2022-08-08T20:46:08.746Z,100.00
2022-08-08T20:48:38.192Z,100.00
2022-08-08T20:51:09.075Z,100.00
2022-08-08T20:54:00.424Z,100.00
2022-08-08T20:56:35.908Z,100.00
2022-08-08T20:59:09.112Z,100.00
2022-08-08T21:02:05.267Z,100.00
2022-08-08T21:04:27.428Z,100.00
2022-08-08T21:06:56.155Z,100.00
2022-08-08T21:09:31.481Z,100.00
2022-08-08T21:12:03.017Z,100.00
2022-08-08T21:14:34.690Z,100.00
2022-08-08T21:17:06.208Z,100.00
2022-08-08T21:19:45.912Z,100.00
2022-08-08T21:22:15.413Z,100.00
2022-08-08T21:24:53.416Z,100.00
2022-08-08T21:28:05.243Z,100.00
2022-08-08T21:30:19.431Z,100.00
2022-08-08T21:32:51.615Z,100.00
2022-08-08T21:36:16.191Z,100.00
2022-08-08T21:38:16.912Z,100.00
2022-08-08T21:40:55.638Z,100.00
2022-08-08T21:43:25.799Z,100.00
2022-08-08T21:48:04.938Z,100.00
2022-08-08T21:48:53.093Z,100.00
2022-08-08T21:54:27.150Z,100.00
2022-08-08T21:54:30.981Z,100.00
2022-08-08T21:57:00.288Z,100.00
2022-08-08T22:00:03.041Z,100.00
2022-08-08T22:02:19.407Z,100.00
2022-08-08T22:04:52.581Z,100.00
2022-08-08T22:07:20.621Z,100.00
2022-08-08T22:09:55.074Z,99.62
2022-08-08T22:12:23.167Z,99.65
2022-08-08T22:14:53.986Z,99.80
2022-08-08T22:17:23.391Z,100.00
2022-08-08T22:20:12.617Z,99.56
2022-08-08T22:22:39.364Z,98.41
2022-08-08T22:25:19.684Z,99.80
2022-08-08T22:28:02.593Z,100.00
2022-08-08T22:30:43.134Z,100.00
2022-08-08T22:33:22.228Z,100.00
2022-08-08T22:36:12.394Z,100.00
2022-08-08T22:38:48.169Z,100.00
2022-08-08T22:41:21.779Z,100.00
2022-08-08T22:44:02.162Z,100.00
2022-08-08T22:46:34.312Z,100.00
2022-08-08T22:49:09.042Z,100.00
2022-08-08T22:51:42.426Z,99.82
2022-08-08T22:54:30.623Z,100.00
2022-08-08T22:57:11.367Z,99.78
2022-08-08T22:59:48.490Z,99.70
2022-08-08T23:02:28.744Z,99.08
2022-08-08T23:05:04.716Z,98.78
2022-08-08T23:07:49.251Z,99.54
2022-08-08T23:10:25.308Z,99.85
2022-08-08T23:12:54.680Z,100.00
2022-08-08T23:16:41.605Z,100.00
2022-08-08T23:18:12.208Z,100.00
2022-08-08T23:20:43.486Z,100.00
2022-08-08T23:23:12.512Z,100.00
2022-08-08T23:25:47.897Z,100.00
2022-08-08T23:28:17.584Z,100.00
2022-08-08T23:30:46.189Z,100.00
2022-08-08T23:33:19.520Z,100.00
2022-08-08T23:36:07.939Z,100.00
2022-08-08T23:38:44.177Z,100.00
2022-08-08T23:41:24.788Z,100.00
2022-08-08T23:43:56.603Z,100.00
2022-08-08T23:49:03.211Z,100.00
2022-08-08T23:49:15.441Z,100.00
2022-08-08T23:52:06.057Z,100.00
2022-08-08T23:54:42.233Z,100.00
2022-08-08T23:57:27.577Z,100.00
